sensor_id;sensor_type;location;lat;lon;timestamp;temperature;humidity
12843;DHT22;35724;49.324;-123.118;2023-01-30T00:05:42;22.70;21.90
12843;DHT22;35724;49.324;-123.118;2023-01-30T00:41:57;22.40;22.30
12843;DHT22;35724;49.324;-123.118;2023-01-30T00:53:18;22.50;22.60
12843;DHT22;35724;49.324;-123.118;2023-01-30T01:04:55;22.40;22.40
12843;DHT22;35724;49.324;-123.118;2023-01-30T01:27:19;22.60;22.40
12843;DHT22;35724;49.324;-123.118;2023-01-30T01:37:39;22.70;22.80
12843;DHT22;35724;49.324;-123.118;2023-01-30T01:48:20;22.80;22.90
12843;DHT22;35724;49.324;-123.118;2023-01-30T01:58:57;22.60;22.80
12843;DHT22;35724;49.324;-123.118;2023-01-30T02:09:29;22.60;23.10
12843;DHT22;35724;49.324;-123.118;2023-01-30T02:19:56;22.60;23.50
12843;DHT22;35724;49.324;-123.118;2023-01-30T02:42:31;22.50;23.80
12843;DHT22;35724;49.324;-123.118;2023-01-30T02:52:42;22.30;24.10
12843;DHT22;35724;49.324;-123.118;2023-01-30T03:03:23;22.50;24.50
12843;DHT22;35724;49.324;-123.118;2023-01-30T03:13:48;22.80;28.80
12843;DHT22;35724;49.324;-123.118;2023-01-30T03:23:59;23.20;30.90
12843;DHT22;35724;49.324;-123.118;2023-01-30T03:34:07;23.40;32.40
12843;DHT22;35724;49.324;-123.118;2023-01-30T03:44:16;23.60;32.90
12843;DHT22;35724;49.324;-123.118;2023-01-30T03:54:23;23.90;33.40
12843;DHT22;35724;49.324;-123.118;2023-01-30T04:04:44;23.90;33.30
12843;DHT22;35724;49.324;-123.118;2023-01-30T04:14:54;24.20;33.80
12843;DHT22;35724;49.324;-123.118;2023-01-30T04:25:16;24.30;33.70
12843;DHT22;35724;49.324;-123.118;2023-01-30T04:35:27;24.50;33.50
12843;DHT22;35724;49.324;-123.118;2023-01-30T04:45:35;24.60;33.20
12843;DHT22;35724;49.324;-123.118;2023-01-30T04:56:06;24.80;33.10
12843;DHT22;35724;49.324;-123.118;2023-01-30T05:06:33;25.00;32.80
12843;DHT22;35724;49.324;-123.118;2023-01-30T05:16:41;24.90;32.40
12843;DHT22;35724;49.324;-123.118;2023-01-30T05:26:49;25.10;31.60
12843;DHT22;35724;49.324;-123.118;2023-01-30T05:36:58;25.20;30.70
12843;DHT22;35724;49.324;-123.118;2023-01-30T05:47:07;25.30;30.50
12843;DHT22;35724;49.324;-123.118;2023-01-30T05:57:16;25.50;30.90
12843;DHT22;35724;49.324;-123.118;2023-01-30T06:07:25;25.70;31.10
12843;DHT22;35724;49.324;-123.118;2023-01-30T06:17:31;25.80;31.10
12843;DHT22;35724;49.324;-123.118;2023-01-30T06:27:40;26.00;31.20
12843;DHT22;35724;49.324;-123.118;2023-01-30T06:37:47;26.00;31.10
12843;DHT22;35724;49.324;-123.118;2023-01-30T06:47:57;26.10;31.00
12843;DHT22;35724;49.324;-123.118;2023-01-30T06:58:05;26.20;31.00
12843;DHT22;35724;49.324;-123.118;2023-01-30T07:08:14;26.30;30.90
12843;DHT22;35724;49.324;-123.118;2023-01-30T07:30:40;26.40;30.40
12843;DHT22;35724;49.324;-123.118;2023-01-30T08:54:12;26.60;29.60
12843;DHT22;35724;49.324;-123.118;2023-01-30T10:03:13;26.90;29.50
12843;DHT22;35724;49.324;-123.118;2023-01-30T10:38:15;27.00;29.40
12843;DHT22;35724;49.324;-123.118;2023-01-30T10:50:10;27.10;29.40
12843;DHT22;35724;49.324;-123.118;2023-01-30T11:13:30;27.20;29.50
12843;DHT22;35724;49.324;-123.118;2023-01-30T11:24:21;27.20;29.40
12843;DHT22;35724;49.324;-123.118;2023-01-30T11:46:42;27.30;29.40
12843;DHT22;35724;49.324;-123.118;2023-01-30T12:21:56;27.30;29.30
12843;DHT22;35724;49.324;-123.118;2023-01-30T12:43:48;27.40;29.40
12843;DHT22;35724;49.324;-123.118;2023-01-30T13:19:18;27.50;29.30
12843;DHT22;35724;49.324;-123.118;2023-01-30T15:08:33;27.70;29.20
12843;DHT22;35724;49.324;-123.118;2023-01-30T15:18:53;27.80;29.30
12843;DHT22;35724;49.324;-123.118;2023-01-30T15:39:42;27.10;26.30
12843;DHT22;35724;49.324;-123.118;2023-01-30T15:49:58;26.90;25.30
12843;DHT22;35724;49.324;-123.118;2023-01-30T16:00:07;26.70;25.30
12843;DHT22;35724;49.324;-123.118;2023-01-30T16:10:18;26.60;25.00
12843;DHT22;35724;49.324;-123.118;2023-01-30T16:20:26;26.50;25.70
12843;DHT22;35724;49.324;-123.118;2023-01-30T16:30:35;26.50;24.80
12843;DHT22;35724;49.324;-123.118;2023-01-30T16:40:46;26.30;24.40
12843;DHT22;35724;49.324;-123.118;2023-01-30T16:51:15;26.30;24.80
12843;DHT22;35724;49.324;-123.118;2023-01-30T17:02:01;26.40;24.80
12843;DHT22;35724;49.324;-123.118;2023-01-30T17:13:40;26.20;24.30
12843;DHT22;35724;49.324;-123.118;2023-01-30T17:34:44;26.00;25.00
12843;DHT22;35724;49.324;-123.118;2023-01-30T17:44:51;25.90;25.00
12843;DHT22;35724;49.324;-123.118;2023-01-30T17:55:00;25.90;25.40
12843;DHT22;35724;49.324;-123.118;2023-01-30T18:05:08;25.80;24.70
12843;DHT22;35724;49.324;-123.118;2023-01-30T18:15:17;26.00;24.90
12843;DHT22;35724;49.324;-123.118;2023-01-30T18:25:24;26.00;24.80
12843;DHT22;35724;49.324;-123.118;2023-01-30T18:35:33;26.10;24.70
12843;DHT22;35724;49.324;-123.118;2023-01-30T18:45:39;26.20;24.60
12843;DHT22;35724;49.324;-123.118;2023-01-30T18:55:50;26.30;24.60
12843;DHT22;35724;49.324;-123.118;2023-01-30T19:06:00;26.30;24.60
12843;DHT22;35724;49.324;-123.118;2023-01-30T19:16:13;26.30;24.90
12843;DHT22;35724;49.324;-123.118;2023-01-30T19:26:22;26.40;24.80
12843;DHT22;35724;49.324;-123.118;2023-01-30T19:36:35;26.40;25.80
12843;DHT22;35724;49.324;-123.118;2023-01-30T19:46:42;26.50;25.20
12843;DHT22;35724;49.324;-123.118;2023-01-30T19:56:51;26.60;24.70
12843;DHT22;35724;49.324;-123.118;2023-01-30T20:07:08;26.60;24.00
12843;DHT22;35724;49.324;-123.118;2023-01-30T20:17:34;26.40;24.20
12843;DHT22;35724;49.324;-123.118;2023-01-30T20:27:45;25.80;23.10
12843;DHT22;35724;49.324;-123.118;2023-01-30T20:38:11;25.50;23.10
12843;DHT22;35724;49.324;-123.118;2023-01-30T20:48:36;25.20;22.90
12843;DHT22;35724;49.324;-123.118;2023-01-30T20:58:51;25.10;22.70
12843;DHT22;35724;49.324;-123.118;2023-01-30T21:08:59;25.00;23.70
12843;DHT22;35724;49.324;-123.118;2023-01-30T21:19:11;25.50;23.60
12843;DHT22;35724;49.324;-123.118;2023-01-30T21:29:23;25.70;23.60
12843;DHT22;35724;49.324;-123.118;2023-01-30T21:39:31;25.90;23.40
12843;DHT22;35724;49.324;-123.118;2023-01-30T21:49:57;26.00;23.20
12843;DHT22;35724;49.324;-123.118;2023-01-30T22:22:16;26.10;23.20
12843;DHT22;35724;49.324;-123.118;2023-01-30T22:32:24;25.80;22.00
12843;DHT22;35724;49.324;-123.118;2023-01-30T22:42:35;25.30;22.00
12843;DHT22;35724;49.324;-123.118;2023-01-30T22:52:43;25.00;21.90
12843;DHT22;35724;49.324;-123.118;2023-01-30T23:02:54;24.80;22.00
12843;DHT22;35724;49.324;-123.118;2023-01-30T23:13:15;24.70;22.80
12843;DHT22;35724;49.324;-123.118;2023-01-30T23:24:32;24.90;23.70
12843;DHT22;35724;49.324;-123.118;2023-01-30T23:34:42;25.00;22.90
12843;DHT22;35724;49.324;-123.118;2023-01-30T23:44:50;24.90;22.80
12843;DHT22;35724;49.324;-123.118;2023-01-30T23:54:57;24.80;22.30
